Time;durP1;ratioP1;P1;durP2;ratioP2;P2;SDS_P1;SDS_P2;PMS_P1;PMS_P2;Temp;Humidity;BMP_temperature;BMP_pressure;BME280_temperature;BME280_humidity;BME280_pressure;Samples;Min_cycle;Max_cycle;Signal;HPM_P1;HPM_P2
2024/01/27 00:01:40;;;;;;;4.17;3.40;;;6.40;1.00;;;;;;5102628;28;20539;-42
2024/01/27 00:04:06;;;;;;;5.30;4.43;;;6.30;1.00;;;;;;5120518;28;20209;-39
2024/01/27 00:06:31;;;;;;;4.13;3.33;;;6.30;1.00;;;;;;5121264;28;20180;-40
2024/01/27 00:08:57;;;;;;;2.90;2.70;;;6.20;1.00;;;;;;5121607;28;20194;-42
2024/01/27 00:11:24;;;;;;;3.67;3.00;;;6.20;1.00;;;;;;5121241;28;20241;-40
2024/01/27 00:13:50;;;;;;;5.03;3.60;;;6.20;1.00;;;;;;5086514;28;20167;-40
2024/01/27 00:16:15;;;;;;;4.00;3.30;;;6.10;1.00;;;;;;5121585;28;20455;-39
2024/01/27 00:18:41;;;;;;;5.70;3.83;;;6.10;1.00;;;;;;5120846;28;20207;-40
2024/01/27 00:21:07;;;;;;;4.60;3.87;;;6.00;1.00;;;;;;5119443;28;20180;-40
2024/01/27 00:23:34;;;;;;;4.00;3.60;;;6.00;1.00;;;;;;5119334;28;20567;-39
2024/01/27 00:26:00;;;;;;;4.80;3.73;;;6.00;1.00;;;;;;5119586;28;20750;-40
2024/01/27 00:28:25;;;;;;;4.70;3.63;;;5.90;1.00;;;;;;5119434;28;20838;-41
2024/01/27 00:30:51;;;;;;;4.60;3.60;;;5.90;1.00;;;;;;5119880;28;20468;-40
2024/01/27 00:33:16;;;;;;;4.20;3.07;;;5.90;1.00;;;;;;5118738;28;20274;-41
2024/01/27 00:35:42;;;;;;;5.97;4.20;;;5.80;1.00;;;;;;5102173;28;20270;-40
2024/01/27 00:38:08;;;;;;;4.43;3.33;;;5.80;1.00;;;;;;5119423;28;20168;-42
2024/01/27 00:40:33;;;;;;;5.33;3.47;;;5.70;99.90;;;;;;5119273;28;20179;-40
2024/01/27 00:42:59;;;;;;;3.57;2.93;;;5.70;99.90;;;;;;5119430;28;20460;-41
2024/01/27 00:45:27;;;;;;;4.20;3.30;;;5.70;99.90;;;;;;5120147;28;20192;-40
2024/01/27 00:47:52;;;;;;;3.93;3.10;;;5.60;99.90;;;;;;5120140;28;20270;-39
2024/01/27 00:50:18;;;;;;;5.67;3.90;;;5.60;1.00;;;;;;5118468;28;20639;-40
2024/01/27 00:52:44;;;;;;;6.07;3.40;;;5.60;99.90;;;;;;5118397;28;20172;-41
2024/01/27 00:55:09;;;;;;;6.17;4.03;;;5.50;99.90;;;;;;5117802;28;20603;-41
2024/01/27 00:57:38;;;;;;;4.63;3.20;;;5.50;99.90;;;;;;5118444;28;20223;-40
2024/01/27 01:00:06;;;;;;;3.93;2.97;;;5.50;99.90;;;;;;5119961;28;20208;-41
2024/01/27 01:02:32;;;;;;;5.27;3.57;;;5.50;99.90;;;;;;5120989;28;20409;-40
2024/01/27 01:04:57;;;;;;;7.37;3.07;;;5.40;1.00;;;;;;5121111;28;20424;-40
2024/01/27 01:07:23;;;;;;;4.10;3.20;;;5.40;99.90;;;;;;5119846;28;20317;-41
2024/01/27 01:09:48;;;;;;;7.37;3.80;;;5.30;99.90;;;;;;5120364;28;20264;-41
2024/01/27 01:12:15;;;;;;;5.50;3.43;;;5.30;99.90;;;;;;5119523;28;20575;-41
2024/01/27 01:14:41;;;;;;;6.40;3.10;;;5.30;99.90;;;;;;5119812;28;20268;-41
2024/01/27 01:17:07;;;;;;;3.93;2.97;;;5.30;99.90;;;;;;5119709;28;20510;-39
2024/01/27 01:19:32;;;;;;;4.10;3.10;;;5.20;99.90;;;;;;5120107;28;20438;-40
2024/01/27 01:21:57;;;;;;;5.47;2.70;;;5.20;99.90;;;;;;5101655;28;20180;-40
2024/01/27 01:24:23;;;;;;;5.57;3.40;;;5.20;99.90;;;;;;5119272;28;20180;-40
2024/01/27 01:26:49;;;;;;;3.93;3.33;;;5.20;99.90;;;;;;5119255;28;20227;-40
2024/01/27 01:29:14;;;;;;;5.13;3.60;;;5.10;99.90;;;;;;5119548;28;20183;-40
2024/01/27 01:31:42;;;;;;;6.13;3.60;;;5.10;99.90;;;;;;5101200;28;20219;-40
2024/01/27 01:34:08;;;;;;;4.97;3.17;;;5.10;99.90;;;;;;5119882;28;20176;-39
2024/01/27 01:36:33;;;;;;;6.00;3.30;;;5.10;99.90;;;;;;5119092;28;20421;-45
2024/01/27 01:38:59;;;;;;;6.33;3.30;;;5.00;99.90;;;;;;5100024;28;20438;-39
2024/01/27 01:41:25;;;;;;;6.43;3.30;;;5.00;99.90;;;;;;5118302;28;20514;-41
2024/01/27 01:43:50;;;;;;;4.20;3.37;;;4.90;99.90;;;;;;5099547;28;20180;-40
2024/01/27 01:46:16;;;;;;;5.67;3.70;;;4.90;99.90;;;;;;5100537;28;20272;-41
2024/01/27 01:48:41;;;;;;;6.70;3.87;;;4.90;99.90;;;;;;5100485;28;20191;-40
2024/01/27 01:51:07;;;;;;;4.80;3.07;;;4.90;99.90;;;;;;5100009;28;20317;-39
2024/01/27 01:53:33;;;;;;;5.70;3.80;;;4.80;99.90;;;;;;5098556;28;20172;-40
2024/01/27 01:55:58;;;;;;;3.70;3.23;;;4.80;99.90;;;;;;5100488;28;20263;-41
2024/01/27 01:58:24;;;;;;;7.17;3.60;;;4.80;99.90;;;;;;5118967;28;20223;-41
2024/01/27 02:00:49;;;;;;;4.33;3.70;;;4.80;99.90;;;;;;5100504;28;20550;-40
2024/01/27 02:03:15;;;;;;;3.97;3.30;;;4.80;99.90;;;;;;5099969;28;20183;-41
2024/01/27 02:05:40;;;;;;;4.10;3.60;;;4.80;1.00;;;;;;5117938;28;20594;-41
2024/01/27 02:08:06;;;;;;;6.10;3.97;;;4.70;1.00;;;;;;5118776;28;20187;-39
2024/01/27 02:10:36;;;;;;;6.50;4.10;;;4.70;1.00;;;;;;5118661;28;20211;-42
2024/01/27 02:13:18;;;;;;;4.67;3.33;;;4.70;1.00;;;;;;5101214;28;20246;-40
2024/01/27 02:15:44;;;;;;;6.47;3.80;;;4.60;1.00;;;;;;5119451;28;20425;-39
2024/01/27 02:18:09;;;;;;;6.80;4.10;;;4.60;1.00;;;;;;5100646;28;20683;-40
2024/01/27 02:20:37;;;;;;;4.70;4.20;;;4.60;1.00;;;;;;5118337;28;20962;-39
2024/01/27 02:23:04;;;;;;;6.13;3.97;;;4.60;1.00;;;;;;5118428;28;20187;-40
2024/01/27 02:25:30;;;;;;;5.50;4.23;;;4.60;1.00;;;;;;5119281;28;20873;-40
2024/01/27 02:27:56;;;;;;;4.00;3.30;;;4.60;1.00;;;;;;5101366;28;20444;-40
2024/01/27 02:30:21;;;;;;;6.57;4.03;;;4.50;1.00;;;;;;5118254;28;20476;-41
2024/01/27 02:32:47;;;;;;;4.00;3.60;;;4.50;1.00;;;;;;5117392;28;20184;-41
2024/01/27 02:35:14;;;;;;;5.40;4.60;;;4.50;1.00;;;;;;5118120;28;20186;-39
2024/01/27 02:37:40;;;;;;;4.80;3.50;;;4.50;1.00;;;;;;5101100;28;20376;-40
2024/01/27 02:40:07;;;;;;;6.60;3.60;;;4.50;1.00;;;;;;5117315;28;20433;-40
2024/01/27 02:42:33;;;;;;;4.80;3.67;;;4.40;1.00;;;;;;5118346;28;20421;-38
2024/01/27 02:44:58;;;;;;;4.20;3.23;;;4.40;1.00;;;;;;5118108;28;20789;-40
2024/01/27 02:47:24;;;;;;;5.13;3.40;;;4.40;1.00;;;;;;5117982;28;20176;-40
2024/01/27 02:49:49;;;;;;;5.63;3.80;;;4.40;1.00;;;;;;5118113;28;20588;-40
2024/01/27 02:52:15;;;;;;;5.20;3.20;;;4.40;1.00;;;;;;5101241;28;20195;-40
2024/01/27 02:54:40;;;;;;;5.73;3.97;;;4.40;1.00;;;;;;5121468;28;20546;-42
2024/01/27 02:57:06;;;;;;;3.63;3.10;;;4.30;99.90;;;;;;5103234;28;20206;-41
2024/01/27 02:59:31;;;;;;;4.63;3.07;;;4.30;99.90;;;;;;5122030;28;20167;-40
2024/01/27 03:01:57;;;;;;;4.83;3.37;;;4.30;99.90;;;;;;5121470;28;20557;-40
2024/01/27 03:04:22;;;;;;;3.77;3.23;;;4.30;99.90;;;;;;5121162;28;20188;-41
2024/01/27 03:06:48;;;;;;;4.80;3.50;;;4.20;99.90;;;;;;5120079;28;20218;-40
2024/01/27 03:09:13;;;;;;;4.50;3.77;;;4.20;99.90;;;;;;5121252;28;20184;-39
2024/01/27 03:11:39;;;;;;;6.27;3.70;;;4.20;99.90;;;;;;5121242;28;20264;-42
2024/01/27 03:14:05;;;;;;;6.10;4.13;;;4.20;99.90;;;;;;5119329;28;20171;-40
2024/01/27 03:16:30;;;;;;;4.60;3.80;;;4.20;99.90;;;;;;5101816;28;20232;-40
2024/01/27 03:18:56;;;;;;;6.30;3.97;;;4.10;99.90;;;;;;5120877;28;20184;-39
2024/01/27 03:21:21;;;;;;;5.73;3.73;;;4.10;99.90;;;;;;5120881;28;20270;-41
2024/01/27 03:23:47;;;;;;;5.90;3.90;;;4.10;99.90;;;;;;5119270;28;20179;-39
2024/01/27 03:26:12;;;;;;;6.20;3.10;;;4.10;99.90;;;;;;5120817;28;20227;-40
2024/01/27 03:28:38;;;;;;;4.00;2.80;;;4.10;1.00;;;;;;5120890;28;20195;-39
2024/01/27 03:31:04;;;;;;;5.67;3.30;;;4.10;99.90;;;;;;5120900;28;20652;-44
2024/01/27 03:33:30;;;;;;;4.80;3.10;;;4.10;99.90;;;;;;5121274;28;20544;-41
2024/01/27 03:35:56;;;;;;;4.87;3.57;;;4.00;99.90;;;;;;5121204;28;20628;-40
2024/01/27 03:38:21;;;;;;;4.90;3.77;;;4.00;99.90;;;;;;5119644;28;20559;-41
2024/01/27 03:40:47;;;;;;;3.80;2.90;;;4.00;99.90;;;;;;5119266;28;20194;-40
2024/01/27 03:43:13;;;;;;;8.80;3.10;;;4.00;99.90;;;;;;5119692;28;20202;-40
2024/01/27 03:45:38;;;;;;;3.73;3.13;;;4.00;99.90;;;;;;5100402;28;20179;-39
2024/01/27 03:48:04;;;;;;;4.43;3.30;;;4.00;99.90;;;;;;5118794;28;20436;-40
2024/01/27 03:50:30;;;;;;;8.00;3.50;;;4.00;99.90;;;;;;5117975;28;20218;-42
2024/01/27 03:52:55;;;;;;;4.17;3.20;;;3.90;99.90;;;;;;5118929;28;20776;-41
2024/01/27 03:55:22;;;;;;;3.20;2.83;;;3.90;99.90;;;;;;5118832;28;20291;-42
2024/01/27 03:57:47;;;;;;;7.43;3.80;;;3.90;99.90;;;;;;5119447;28;20226;-41
2024/01/27 04:00:13;;;;;;;6.00;3.30;;;3.90;99.90;;;;;;5102023;28;20439;-40
2024/01/27 04:02:39;;;;;;;4.20;3.67;;;3.80;99.90;;;;;;5119780;28;20506;-39
2024/01/27 04:05:06;;;;;;;4.03;3.17;;;3.80;99.90;;;;;;5119803;28;20167;-40
2024/01/27 04:07:31;;;;;;;3.30;2.77;;;3.80;99.90;;;;;;5120270;28;20183;-43
2024/01/27 04:09:57;;;;;;;4.83;3.00;;;3.80;99.90;;;;;;5120010;28;20468;-39
2024/01/27 04:12:22;;;;;;;3.40;3.10;;;3.70;99.90;;;;;;5120069;28;20172;-40
2024/01/27 04:14:48;;;;;;;5.73;3.10;;;3.70;99.90;;;;;;5120344;28;20232;-40
2024/01/27 04:17:13;;;;;;;4.37;3.57;;;3.70;99.80;;;;;;5119310;28;20542;-40
2024/01/27 04:19:39;;;;;;;3.83;3.00;;;3.70;99.90;;;;;;5119256;28;20565;-42
2024/01/27 04:22:04;;;;;;;3.97;2.90;;;3.70;99.90;;;;;;5100450;28;20476;-41
2024/01/27 04:24:30;;;;;;;5.03;3.77;;;3.60;98.10;;;;;;5119767;28;20172;-40
2024/01/27 04:26:55;;;;;;;4.60;3.50;;;3.60;59.90;;;;;;5119751;28;20296;-40
2024/01/27 04:29:21;;;;;;;6.20;3.73;;;3.60;33.40;;;;;;5120325;28;20179;-41
2024/01/27 04:31:46;;;;;;;7.63;4.17;;;3.60;26.40;;;;;;5120475;28;20214;-40
2024/01/27 04:34:12;;;;;;;8.30;3.10;;;3.60;29.80;;;;;;5119853;28;20191;-41
2024/01/27 04:36:37;;;;;;;5.40;3.00;;;3.50;43.90;;;;;;5119578;28;20216;-41
2024/01/27 04:39:04;;;;;;;4.13;3.10;;;3.50;45.40;;;;;;5118714;28;20195;-38
2024/01/27 04:41:29;;;;;;;4.00;3.20;;;3.50;25.20;;;;;;5118911;28;20236;-39
2024/01/27 04:43:56;;;;;;;4.83;3.30;;;3.50;1.00;;;;;;5118692;28;20430;-39
2024/01/27 04:46:22;;;;;;;3.73;3.10;;;3.50;1.00;;;;;;5100466;28;20188;-40
2024/01/27 04:48:48;;;;;;;8.43;4.27;;;3.50;1.00;;;;;;5117695;28;20460;-40
2024/01/27 04:51:13;;;;;;;4.37;3.47;;;3.50;1.00;;;;;;5117135;28;20512;-41
2024/01/27 04:53:39;;;;;;;4.40;3.27;;;3.50;1.00;;;;;;5117934;28;20240;-39
2024/01/27 04:56:07;;;;;;;3.73;3.27;;;3.40;1.00;;;;;;5115969;28;20180;-38
2024/01/27 04:58:34;;;;;;;7.00;3.27;;;3.40;1.00;;;;;;5116269;28;20349;-41
2024/01/27 05:01:00;;;;;;;4.20;3.37;;;3.40;1.00;;;;;;5116526;28;20429;-39
2024/01/27 05:03:25;;;;;;;4.07;3.27;;;3.40;1.00;;;;;;5117692;28;20444;-39
2024/01/27 05:05:53;;;;;;;3.70;3.13;;;3.40;1.00;;;;;;5117955;28;20540;-39
2024/01/27 05:08:19;;;;;;;5.27;3.60;;;3.40;1.00;;;;;;5100653;28;20238;-40
2024/01/27 05:10:45;;;;;;;4.03;3.13;;;3.40;1.00;;;;;;5118838;28;20476;-39
2024/01/27 05:13:10;;;;;;;4.40;3.27;;;3.40;1.00;;;;;;5119020;28;20438;-40
2024/01/27 05:15:36;;;;;;;4.80;3.40;;;3.40;1.00;;;;;;5118385;28;20255;-40
2024/01/27 05:18:02;;;;;;;5.10;3.23;;;3.40;1.00;;;;;;5119160;28;20333;-39
2024/01/27 05:20:27;;;;;;;4.23;3.10;;;3.40;6.80;;;;;;5117108;28;20513;-39
2024/01/27 05:22:53;;;;;;;4.70;3.10;;;3.30;32.00;;;;;;5116718;28;20482;-39
2024/01/27 05:25:18;;;;;;;5.10;3.50;;;3.30;52.80;;;;;;5116221;28;20239;-39
2024/01/27 05:27:44;;;;;;;4.30;3.13;;;3.30;1.00;;;;;;5116798;28;20480;-40
2024/01/27 05:30:10;;;;;;;4.20;3.40;;;3.30;1.00;;;;;;5117025;28;20544;-39
2024/01/27 05:32:35;;;;;;;5.83;3.90;;;3.30;1.00;;;;;;5098147;28;20620;-40
2024/01/27 05:35:01;;;;;;;4.53;3.20;;;3.30;1.00;;;;;;5118384;28;20488;-40
2024/01/27 05:37:27;;;;;;;5.60;3.53;;;3.20;1.00;;;;;;5101864;28;20246;-39
2024/01/27 05:39:52;;;;;;;4.77;3.43;;;3.20;1.00;;;;;;5119512;28;20442;-39
2024/01/27 05:42:18;;;;;;;4.23;3.73;;;3.20;1.00;;;;;;5119639;28;20179;-40
2024/01/27 05:44:45;;;;;;;5.37;4.17;;;3.20;1.00;;;;;;5118753;28;20179;-40
2024/01/27 05:47:10;;;;;;;6.77;4.37;;;3.10;1.00;;;;;;5118027;28;20176;-41
2024/01/27 05:49:36;;;;;;;9.40;5.53;;;3.10;1.00;;;;;;5100645;28;20680;-41
2024/01/27 05:52:02;;;;;;;5.40;4.50;;;3.10;1.00;;;;;;5118484;28;20233;-41
2024/01/27 05:54:28;;;;;;;6.37;3.70;;;3.10;1.00;;;;;;5118136;28;20464;-41
2024/01/27 05:56:53;;;;;;;9.50;5.40;;;3.10;1.00;;;;;;5118541;28;20494;-41
2024/01/27 05:59:19;;;;;;;6.37;4.10;;;3.10;1.00;;;;;;5118120;28;20396;-41
2024/01/27 06:01:44;;;;;;;4.67;4.10;;;3.10;1.00;;;;;;5117781;28;20275;-41
2024/01/27 06:04:12;;;;;;;7.17;4.70;;;3.00;1.00;;;;;;5117041;28;20278;-39
2024/01/27 06:06:40;;;;;;;6.40;4.93;;;3.00;1.00;;;;;;5116854;28;20188;-41
2024/01/27 06:09:10;;;;;;;5.73;4.23;;;3.00;1.00;;;;;;5116009;28;20433;-41
2024/01/27 06:11:36;;;;;;;5.57;3.80;;;3.00;1.00;;;;;;5098041;28;20537;-41
2024/01/27 06:14:02;;;;;;;4.33;3.70;;;3.00;1.00;;;;;;5115705;28;20733;-39
2024/01/27 06:16:28;;;;;;;4.33;3.67;;;2.90;1.00;;;;;;5097470;28;20592;-38
2024/01/27 06:18:54;;;;;;;5.67;4.03;;;2.90;1.00;;;;;;5115117;28;20256;-39
2024/01/27 06:21:20;;;;;;;6.73;4.43;;;2.90;1.00;;;;;;5115071;28;20179;-40
2024/01/27 06:23:46;;;;;;;6.10;4.23;;;2.90;1.00;;;;;;5114771;28;20449;-39
2024/01/27 06:26:13;;;;;;;8.70;4.80;;;2.90;1.00;;;;;;5115027;28;20517;-39
2024/01/27 06:28:38;;;;;;;5.87;4.07;;;2.90;1.00;;;;;;5115995;28;20455;-40
2024/01/27 06:31:04;;;;;;;4.70;3.53;;;2.90;1.00;;;;;;5115958;28;20572;-39
2024/01/27 06:33:30;;;;;;;4.93;3.50;;;2.80;1.00;;;;;;5116431;28;20237;-39
2024/01/27 06:35:56;;;;;;;4.50;3.80;;;2.80;1.00;;;;;;5116424;28;20703;-42
2024/01/27 06:38:21;;;;;;;6.00;4.00;;;2.80;1.00;;;;;;5116304;28;20402;-39
2024/01/27 06:40:47;;;;;;;4.23;3.83;;;2.80;1.00;;;;;;5117200;28;20176;-39
2024/01/27 06:43:13;;;;;;;4.87;3.63;;;2.80;1.00;;;;;;5117249;28;20184;-39
2024/01/27 06:45:39;;;;;;;5.07;3.80;;;2.80;1.00;;;;;;5108855;28;20261;-41
2024/01/27 06:48:06;;;;;;;5.63;4.20;;;2.70;1.00;;;;;;5107488;28;20449;-40
2024/01/27 06:50:32;;;;;;;5.13;3.43;;;2.70;1.00;;;;;;5089138;28;20485;-40
2024/01/27 06:52:57;;;;;;;7.50;4.13;;;2.70;1.00;;;;;;5095869;28;20720;-39
2024/01/27 06:55:23;;;;;;;4.90;3.97;;;2.70;1.00;;;;;;5096163;28;20272;-39
2024/01/27 06:57:48;;;;;;;8.80;3.87;;;2.70;1.00;;;;;;5078496;28;20199;-41
2024/01/27 07:00:14;;;;;;;4.20;3.47;;;2.70;28.00;;;;;;5096447;28;20181;-40
2024/01/27 07:02:41;;;;;;;4.20;3.77;;;2.70;32.30;;;;;;5096554;28;20192;-41
2024/01/27 07:05:08;;;;;;;4.80;3.40;;;2.90;76.00;;;;;;5078003;28;20513;-40
2024/01/27 07:07:34;;;;;;;8.70;3.57;;;3.10;16.10;;;;;;5095345;28;20458;-39
2024/01/27 07:10:00;;;;;;;5.50;3.07;;;;;;;;;;5095513;28;20917;-41
2024/01/27 07:12:25;;;;;;;4.50;3.47;;;2.80;1.00;;;;;;5096056;28;20276;-43
2024/01/27 07:14:52;;;;;;;4.67;4.07;;;2.70;1.00;;;;;;5095287;28;20525;-41
2024/01/27 07:17:18;;;;;;;4.73;3.50;;;2.80;1.00;;;;;;5096127;28;20180;-40
2024/01/27 07:19:43;;;;;;;8.10;4.63;;;2.80;1.00;;;;;;5096410;28;20411;-40
2024/01/27 07:22:09;;;;;;;7.73;3.53;;;2.80;1.00;;;;;;5095869;28;20188;-40
2024/01/27 07:24:35;;;;;;;6.20;4.00;;;2.80;1.00;;;;;;5095944;28;20230;-40
2024/01/27 07:27:01;;;;;;;4.73;3.27;;;2.80;1.00;;;;;;5073088;28;20586;-42
2024/01/27 07:29:27;;;;;;;6.20;3.43;;;2.90;1.00;;;;;;5077626;28;20178;-41
2024/01/27 07:31:53;;;;;;;6.17;3.83;;;2.80;99.90;;;;;;5079601;28;20470;-41
2024/01/27 07:34:19;;;;;;;4.27;3.37;;;2.90;99.90;;;;;;5078939;28;20442;-41
2024/01/27 07:36:44;;;;;;;3.93;3.20;;;3.00;99.90;;;;;;5077051;28;20280;-40
2024/01/27 07:39:10;;;;;;;4.27;3.83;;;3.10;99.90;;;;;;5079324;28;20496;-41
2024/01/27 07:41:36;;;;;;;6.10;4.30;;;3.20;99.90;;;;;;5079691;28;20192;-41
2024/01/27 07:44:13;;;;;;;4.37;3.20;;;3.40;99.90;;;;;;5077367;28;20596;-41
2024/01/27 07:46:39;;;;;;;5.30;4.37;;;3.70;99.90;;;;;;5077951;28;20199;-39
2024/01/27 07:49:08;;;;;;;4.67;3.70;;;3.90;1.00;;;;;;5077120;28;20500;-40
2024/01/27 07:51:34;;;;;;;6.33;3.90;;;4.20;1.00;;;;;;5078210;28;20467;-41
2024/01/27 07:54:00;;;;;;;5.83;3.37;;;4.50;1.00;;;;;;5078092;28;20538;-40
2024/01/27 07:56:26;;;;;;;5.80;3.80;;;4.70;1.00;;;;;;5076272;28;20174;-41
2024/01/27 07:58:51;;;;;;;6.57;4.63;;;5.10;5.10;;;;;;5078064;28;20431;-41
2024/01/27 08:01:18;;;;;;;4.40;3.67;;;5.40;1.00;;;;;;5077619;28;20446;-40
2024/01/27 08:03:43;;;;;;;4.40;3.90;;;5.70;1.00;;;;;;5076149;28;20254;-41
2024/01/27 08:06:16;;;;;;;5.10;3.60;;;6.00;1.00;;;;;;5077627;28;20434;-41
2024/01/27 08:08:44;;;;;;;5.40;4.40;;;6.40;1.00;;;;;;5077598;28;20219;-40
2024/01/27 08:11:09;;;;;;;4.37;3.63;;;6.70;99.90;;;;;;5079326;28;20565;-40
2024/01/27 08:13:35;;;;;;;5.40;4.20;;;7.10;99.90;;;;;;5077981;28;20529;-40
2024/01/27 08:16:01;;;;;;;7.73;4.20;;;6.00;99.90;;;;;;5076090;28;20272;-40
2024/01/27 08:18:26;;;;;;;5.13;3.57;;;7.70;99.90;;;;;;5076721;28;20571;-40
2024/01/27 08:20:52;;;;;;;7.70;4.40;;;8.10;95.00;;;;;;5077992;28;20559;-42
2024/01/27 08:23:17;;;;;;;5.23;3.60;;;8.40;1.00;;;;;;5077950;28;20264;-41
2024/01/27 08:25:47;;;;;;;8.10;5.17;;;8.80;1.00;;;;;;5060868;28;20397;-41
2024/01/27 08:28:12;;;;;;;6.77;6.00;;;9.10;1.00;;;;;;5078286;28;20205;-41
2024/01/27 08:30:38;;;;;;;8.90;6.43;;;9.50;1.00;;;;;;5074860;28;20586;-40
2024/01/27 08:33:05;;;;;;;3.20;2.17;;;9.90;99.90;;;;;;5074364;28;20582;-41
2024/01/27 08:35:30;;;;;;;5.23;2.60;;;10.40;1.00;;;;;;5075992;28;20157;-43
2024/01/27 08:37:56;;;;;;;2.70;2.50;;;11.50;1.00;;;;;;5076337;28;20433;-41
2024/01/27 08:40:21;;;;;;;5.70;2.47;;;12.60;1.00;;;;;;5075471;28;20211;-43
2024/01/27 08:42:47;;;;;;;7.40;2.80;;;13.60;1.00;;;;;;5076878;28;20260;-44
2024/01/27 08:45:12;;;;;;;5.40;2.87;;;14.50;1.00;;;;;;5075954;28;20494;-42
2024/01/27 08:47:38;;;;;;;7.60;4.10;;;15.30;99.90;;;;;;5076631;28;20182;-44
2024/01/27 08:50:04;;;;;;;5.67;3.10;;;16.10;1.00;;;;;;5074013;28;20256;-41
2024/01/27 08:52:30;;;;;;;3.43;3.10;;;16.80;99.90;;;;;;5075059;28;20273;-40
2024/01/27 08:54:55;;;;;;;6.90;3.50;;;17.30;1.00;;;;;;5075572;28;20529;-40
2024/01/27 08:57:21;;;;;;;3.47;2.80;;;17.80;99.90;;;;;;5079663;28;20189;-43
2024/01/27 08:59:46;;;;;;;4.20;3.10;;;18.30;1.00;;;;;;5078022;28;20188;-44
2024/01/27 09:02:12;;;;;;;4.33;2.80;;;18.70;99.90;;;;;;5077888;28;20260;-44
2024/01/27 09:04:38;;;;;;;4.37;2.73;;;19.00;1.00;;;;;;5082575;28;20283;-42
2024/01/27 09:07:04;;;;;;;3.17;2.80;;;19.30;99.90;;;;;;5095333;28;20188;-42
2024/01/27 09:09:29;;;;;;;5.43;2.80;;;19.70;99.90;;;;;;5096953;28;20531;-43
2024/01/27 09:11:55;;;;;;;4.83;3.20;;;20.00;99.90;;;;;;5096151;28;20223;-42
2024/01/27 09:14:21;;;;;;;5.73;3.03;;;20.30;50.90;;;;;;5095760;28;20299;-43
2024/01/27 09:16:47;;;;;;;3.60;2.60;;;20.60;1.00;;;;;;5095700;28;20521;-43
2024/01/27 09:19:12;;;;;;;6.70;3.13;;;20.90;1.00;;;;;;5095541;28;20271;-44
2024/01/27 09:21:38;;;;;;;4.80;3.07;;;21.20;1.00;;;;;;5095990;28;20199;-41
2024/01/27 09:24:04;;;;;;;7.70;2.80;;;21.50;1.00;;;;;;5097303;28;20245;-41
2024/01/27 09:26:29;;;;;;;6.23;3.23;;;21.80;1.00;;;;;;5112839;28;20285;-43
2024/01/27 09:28:55;;;;;;;7.77;2.93;;;22.00;1.00;;;;;;5117350;28;20432;-43
2024/01/27 09:31:22;;;;;;;5.90;2.90;;;22.30;1.00;;;;;;5117483;28;20208;-46
2024/01/27 09:33:50;;;;;;;5.60;3.83;;;22.60;1.00;;;;;;5099696;28;20192;-43
2024/01/27 09:36:15;;;;;;;3.60;2.83;;;22.80;1.00;;;;;;5117404;28;20433;-44
2024/01/27 09:38:41;;;;;;;6.30;4.83;;;23.00;1.00;;;;;;5116225;28;20422;-44
2024/01/27 09:41:07;;;;;;;4.73;3.70;;;23.20;1.00;;;;;;5115745;28;20473;-44
2024/01/27 09:43:32;;;;;;;4.57;3.20;;;23.50;1.00;;;;;;5114799;28;20637;-41
2024/01/27 09:45:58;;;;;;;4.60;4.00;;;23.80;1.00;;;;;;5081194;28;20179;-44
2024/01/27 09:48:25;;;;;;;5.80;3.10;;;23.90;1.00;;;;;;5116095;28;20188;-42
2024/01/27 09:50:51;;;;;;;5.83;4.00;;;24.10;1.00;;;;;;5116265;28;20271;-42
2024/01/27 09:53:17;;;;;;;4.43;2.93;;;24.20;1.00;;;;;;5115796;28;20851;-42
2024/01/27 09:55:44;;;;;;;4.93;3.60;;;24.30;1.00;;;;;;5116511;28;20508;-45
2024/01/27 09:58:10;;;;;;;6.17;3.97;;;24.50;1.00;;;;;;5115284;28;20201;-45
2024/01/27 10:00:36;;;;;;;6.67;4.57;;;24.60;1.00;;;;;;5095049;28;20432;-45
2024/01/27 10:03:03;;;;;;;4.57;3.60;;;24.70;1.00;;;;;;5113945;28;20425;-41
2024/01/27 10:05:29;;;;;;;6.47;3.90;;;24.80;1.00;;;;;;5096780;28;20773;-41
2024/01/27 10:07:54;;;;;;;4.13;3.20;;;25.10;1.00;;;;;;5114654;28;20586;-41
2024/01/27 10:10:20;;;;;;;6.00;3.40;;;25.30;1.00;;;;;;5113869;28;20212;-41
2024/01/27 10:12:47;;;;;;;6.13;3.47;;;25.50;1.00;;;;;;5096187;28;20236;-43
2024/01/27 10:15:20;;;;;;;6.37;3.00;;;25.80;1.00;;;;;;5096166;28;20647;-42
2024/01/27 10:17:46;;;;;;;6.40;3.17;;;26.00;1.00;;;;;;5114499;28;20440;-42
2024/01/27 10:20:15;;;;;;;6.63;4.00;;;26.20;62.50;;;;;;5113971;28;20486;-43
2024/01/27 10:22:41;;;;;;;4.67;2.83;;;26.30;1.00;;;;;;5114726;28;20172;-41
2024/01/27 10:25:08;;;;;;;7.13;3.30;;;26.60;28.40;;;;;;5115200;28;20510;-42
2024/01/27 10:27:33;;;;;;;4.80;2.10;;;26.80;75.20;;;;;;5115371;28;20566;-41
2024/01/27 10:29:59;;;;;;;5.53;2.83;;;27.00;33.50;;;;;;5117005;28;20396;-43
2024/01/27 10:32:24;;;;;;;3.87;2.77;;;27.20;1.00;;;;;;5116481;28;20168;-41
2024/01/27 10:35:05;;;;;;;7.43;2.90;;;27.30;1.00;;;;;;5097154;28;20258;-42
2024/01/27 10:37:30;;;;;;;14.20;3.20;;;27.50;1.00;;;;;;5115918;28;20244;-42
2024/01/27 10:40:04;;;;;;;12.20;2.73;;;27.70;1.00;;;;;;5115580;28;20839;-43
2024/01/27 10:42:30;;;;;;;7.60;3.87;;;28.10;1.00;;;;;;5097165;28;20196;-41
2024/01/27 10:44:58;;;;;;;15.63;3.33;;;28.30;1.00;;;;;;5115395;28;20417;-40
2024/01/27 10:47:29;;;;;;;10.30;2.83;;;28.40;91.10;;;;;;5116622;28;20392;-42
2024/01/27 10:49:59;;;;;;;6.10;2.47;;;28.70;99.90;;;;;;5098395;28;20540;-42
2024/01/27 10:52:28;;;;;;;11.63;2.83;;;29.00;99.90;;;;;;5095368;28;21056;-43
2024/01/27 10:55:06;;;;;;;5.47;2.70;;;29.10;1.00;;;;;;5096724;28;20487;-41
2024/01/27 10:57:33;;;;;;;11.70;3.57;;;29.30;1.00;;;;;;5097292;28;20429;-42
2024/01/27 11:00:01;;;;;;;4.17;2.70;;;29.50;1.00;;;;;;5097574;28;20827;-41
2024/01/27 11:02:28;;;;;;;8.00;3.00;;;29.60;1.00;;;;;;5113137;28;20449;-42
2024/01/27 11:04:54;;;;;;;5.40;2.30;;;29.60;1.00;;;;;;5078590;28;20447;-42
2024/01/27 11:07:23;;;;;;;6.33;3.07;;;29.80;1.00;;;;;;5113848;28;20767;-42
2024/01/27 11:09:52;;;;;;;4.50;2.63;;;29.80;1.00;;;;;;5096058;28;20535;-42
2024/01/27 11:12:19;;;;;;;6.23;2.90;;;29.70;1.00;;;;;;5114279;28;20486;-41
2024/01/27 11:14:49;;;;;;;9.33;3.17;;;29.90;1.00;;;;;;5101246;28;20841;-42
2024/01/27 11:17:16;;;;;;;4.63;3.53;;;29.90;1.00;;;;;;5101187;28;20413;-44
2024/01/27 11:19:42;;;;;;;6.63;3.03;;;30.00;1.00;;;;;;5120323;28;20417;-42
2024/01/27 11:22:07;;;;;;;7.20;3.60;;;30.20;1.00;;;;;;5102744;28;20472;-40
2024/01/27 11:24:33;;;;;;;2.97;2.30;;;30.40;1.00;;;;;;5118983;28;20436;-43
2024/01/27 11:27:03;;;;;;;3.80;2.90;;;30.70;1.00;;;;;;5117553;28;20314;-42
2024/01/27 11:29:29;;;;;;;5.20;3.20;;;30.70;1.00;;;;;;5117958;28;20172;-45
2024/01/27 11:31:56;;;;;;;4.40;2.60;;;30.80;1.00;;;;;;5118279;28;20421;-42
2024/01/27 11:34:21;;;;;;;5.03;2.60;;;30.70;1.00;;;;;;5099835;28;20820;-42
2024/01/27 11:36:48;;;;;;;4.00;2.23;;;30.90;1.00;;;;;;5118199;28;20407;-43
2024/01/27 11:39:31;;;;;;;3.73;2.43;;;31.00;1.00;;;;;;5114680;28;20561;-41
2024/01/27 11:42:07;;;;;;;4.40;2.50;;;30.90;1.00;;;;;;5119549;28;20475;-42
2024/01/27 11:44:37;;;;;;;4.83;2.57;;;31.20;1.00;;;;;;5086382;28;20569;-43
2024/01/27 11:47:03;;;;;;;3.60;2.50;;;31.60;1.00;;;;;;5098533;28;20492;-42
2024/01/27 11:49:29;;;;;;;4.30;2.60;;;32.00;1.00;;;;;;5096768;28;20437;-44
2024/01/27 11:51:54;;;;;;;4.10;2.17;;;32.20;1.00;;;;;;5096911;28;20416;-42
2024/01/27 11:54:20;;;;;;;3.90;2.50;;;32.30;1.00;;;;;;5097392;28;20668;-42
2024/01/27 11:56:46;;;;;;;3.67;2.77;;;32.60;1.00;;;;;;5096349;28;20426;-43
2024/01/27 11:59:12;;;;;;;4.10;2.33;;;32.60;1.00;;;;;;5096997;28;20395;-40
2024/01/27 12:01:37;;;;;;;6.13;3.00;;;32.40;1.00;;;;;;5095340;28;20204;-42
2024/01/27 12:04:04;;;;;;;7.70;3.20;;;32.50;1.00;;;;;;5095117;28;20172;-43
2024/01/27 12:06:30;;;;;;;4.50;3.10;;;32.70;1.00;;;;;;5094657;28;20210;-42
2024/01/27 12:08:57;;;;;;;5.30;3.70;;;32.40;1.00;;;;;;5095774;28;20430;-44
2024/01/27 12:11:25;;;;;;;7.43;3.53;;;32.70;1.00;;;;;;5095098;28;20268;-41
2024/01/27 12:13:52;;;;;;;6.77;2.90;;;33.00;1.00;;;;;;5095667;28;20418;-45
2024/01/27 12:16:18;;;;;;;5.30;3.00;;;33.10;1.00;;;;;;5097841;28;20393;-41
2024/01/27 12:18:45;;;;;;;4.03;3.00;;;32.90;1.00;;;;;;5100856;28;20984;-42
2024/01/27 12:21:10;;;;;;;4.53;3.07;;;33.30;1.00;;;;;;5117876;28;20710;-42
2024/01/27 12:23:36;;;;;;;4.20;2.67;;;33.50;1.00;;;;;;5115259;28;20424;-44
2024/01/27 12:26:01;;;;;;;4.77;3.07;;;33.30;1.00;;;;;;5117784;28;20219;-42
2024/01/27 12:28:27;;;;;;;3.30;3.00;;;33.10;1.00;;;;;;5118590;28;20176;-43
2024/01/27 12:30:53;;;;;;;5.23;2.77;;;32.90;1.00;;;;;;5119565;28;20179;-42
2024/01/27 12:33:23;;;;;;;7.23;3.03;;;33.10;1.00;;;;;;5119308;28;20428;-45
2024/01/27 12:35:49;;;;;;;4.90;3.00;;;33.30;1.00;;;;;;5118855;28;20396;-43
2024/01/27 12:38:14;;;;;;;3.37;2.93;;;33.60;1.00;;;;;;5119755;28;20909;-42
2024/01/27 12:40:40;;;;;;;4.43;2.30;;;33.70;1.00;;;;;;5101241;28;20564;-43
2024/01/27 12:43:06;;;;;;;6.47;2.90;;;33.80;1.00;;;;;;5101304;28;20198;-40
2024/01/27 12:45:34;;;;;;;6.73;2.47;;;33.90;1.00;;;;;;5117154;28;20167;-43
2024/01/27 12:48:00;;;;;;;3.10;2.03;;;33.90;1.00;;;;;;5118667;28;20426;-41
2024/01/27 12:50:26;;;;;;;5.90;2.73;;;34.00;1.00;;;;;;5100766;28;20396;-42
2024/01/27 12:52:51;;;;;;;4.13;2.17;;;34.10;1.00;;;;;;5118542;28;20421;-42
2024/01/27 12:55:17;;;;;;;4.63;2.57;;;34.20;1.00;;;;;;5115803;28;20182;-41